sensor_id;sensor_type;location;lat;lon;timestamp;pressure;altitude;pressure_sealevel;temperature;humidity
11621;BME280;5866;49.094;11.900;2023-07-02T00:02:22;95556.91;;;18.13;100.00
11621;BME280;5866;49.094;11.900;2023-07-02T00:04:51;95552.06;;;18.22;100.00
11621;BME280;5866;49.094;11.900;2023-07-02T00:07:19;95563.53;;;18.29;100.00
11621;BME280;5866;49.094;11.900;2023-07-02T00:09:46;95542.28;;;18.27;100.00
11621;BME280;5866;49.094;11.900;2023-07-02T00:12:14;95546.38;;;18.30;100.00
11621;BME280;5866;49.094;11.900;2023-07-02T00:14:41;95547.53;;;18.04;100.00
11621;BME280;5866;49.094;11.900;2023-07-02T00:17:09;95553.19;;;17.96;100.00
11621;BME280;5866;49.094;11.900;2023-07-02T00:19:39;95549.53;;;18.09;100.00
11621;BME280;5866;49.094;11.900;2023-07-02T00:22:09;95548.41;;;18.16;100.00
11621;BME280;5866;49.094;11.900;2023-07-02T00:24:37;95544.59;;;18.06;100.00
11621;BME280;5866;49.094;11.900;2023-07-02T00:27:05;95545.72;;;17.98;100.00
11621;BME280;5866;49.094;11.900;2023-07-02T00:29:32;95547.66;;;17.91;100.00
11621;BME280;5866;49.094;11.900;2023-07-02T00:32:00;95549.31;;;18.10;100.00
11621;BME280;5866;49.094;11.900;2023-07-02T00:34:27;95543.81;;;18.05;100.00
11621;BME280;5866;49.094;11.900;2023-07-02T00:36:55;95543.81;;;18.05;100.00
11621;BME280;5866;49.094;11.900;2023-07-02T00:39:24;95542.75;;;18.06;100.00
11621;BME280;5866;49.094;11.900;2023-07-02T00:41:51;95550.59;;;18.38;100.00
11621;BME280;5866;49.094;11.900;2023-07-02T00:44:19;95562.56;;;18.23;100.00
11621;BME280;5866;49.094;11.900;2023-07-02T00:46:50;95555.94;;;18.44;100.00
11621;BME280;5866;49.094;11.900;2023-07-02T00:49:18;95551.34;;;18.63;100.00
11621;BME280;5866;49.094;11.900;2023-07-02T00:51:46;95550.63;;;18.56;100.00
11621;BME280;5866;49.094;11.900;2023-07-02T00:54:13;95555.09;;;18.44;100.00
11621;BME280;5866;49.094;11.900;2023-07-02T00:56:42;95546.00;;;18.26;100.00
11621;BME280;5866;49.094;11.900;2023-07-02T00:59:12;95551.66;;;18.37;100.00
11621;BME280;5866;49.094;11.900;2023-07-02T01:01:39;95557.94;;;18.31;100.00
11621;BME280;5866;49.094;11.900;2023-07-02T01:04:07;95549.06;;;18.48;100.00
11621;BME280;5866;49.094;11.900;2023-07-02T01:06:36;95552.81;;;18.11;100.00
11621;BME280;5866;49.094;11.900;2023-07-02T01:09:07;95548.81;;;18.50;100.00
11621;BME280;5866;49.094;11.900;2023-07-02T01:11:37;95546.75;;;18.34;100.00
11621;BME280;5866;49.094;11.900;2023-07-02T01:14:09;95538.41;;;18.23;100.00
11621;BME280;5866;49.094;11.900;2023-07-02T01:16:39;95547.09;;;18.07;100.00
11621;BME280;5866;49.094;11.900;2023-07-02T01:19:12;95543.88;;;17.99;100.00
11621;BME280;5866;49.094;11.900;2023-07-02T01:21:42;95545.88;;;17.67;100.00
11621;BME280;5866;49.094;11.900;2023-07-02T01:24:09;95545.94;;;17.79;100.00
11621;BME280;5866;49.094;11.900;2023-07-02T01:26:37;95545.75;;;17.80;100.00
11621;BME280;5866;49.094;11.900;2023-07-02T01:29:22;95555.59;;;17.86;100.00
11621;BME280;5866;49.094;11.900;2023-07-02T01:31:50;95563.22;;;17.83;100.00
11621;BME280;5866;49.094;11.900;2023-07-02T01:34:18;95566.50;;;17.67;100.00
11621;BME280;5866;49.094;11.900;2023-07-02T01:36:46;95574.94;;;17.45;100.00
11621;BME280;5866;49.094;11.900;2023-07-02T01:39:14;95580.25;;;17.52;100.00
11621;BME280;5866;49.094;11.900;2023-07-02T01:41:45;95583.75;;;17.28;100.00
11621;BME280;5866;49.094;11.900;2023-07-02T01:44:12;95581.50;;;17.25;100.00
11621;BME280;5866;49.094;11.900;2023-07-02T01:46:40;95591.03;;;17.21;100.00
11621;BME280;5866;49.094;11.900;2023-07-02T01:49:07;95582.09;;;17.27;100.00
11621;BME280;5866;49.094;11.900;2023-07-02T01:51:35;95578.50;;;17.64;100.00
11621;BME280;5866;49.094;11.900;2023-07-02T01:54:06;95582.13;;;17.52;100.00
11621;BME280;5866;49.094;11.900;2023-07-02T01:56:33;95581.03;;;17.59;100.00
11621;BME280;5866;49.094;11.900;2023-07-02T01:59:01;95577.78;;;17.93;100.00
11621;BME280;5866;49.094;11.900;2023-07-02T02:01:28;95573.91;;;17.71;100.00
11621;BME280;5866;49.094;11.900;2023-07-02T02:03:56;95578.88;;;17.43;100.00
11621;BME280;5866;49.094;11.900;2023-07-02T02:06:24;95576.34;;;17.73;100.00
11621;BME280;5866;49.094;11.900;2023-07-02T02:08:51;95574.66;;;17.96;100.00
11621;BME280;5866;49.094;11.900;2023-07-02T02:11:20;95577.34;;;17.78;100.00
11621;BME280;5866;49.094;11.900;2023-07-02T02:13:47;95578.50;;;17.64;100.00
11621;BME280;5866;49.094;11.900;2023-07-02T02:16:16;95580.94;;;17.41;100.00
11621;BME280;5866;49.094;11.900;2023-07-02T02:18:43;95573.56;;;17.36;100.00
11621;BME280;5866;49.094;11.900;2023-07-02T02:21:11;95575.53;;;17.23;100.00
11621;BME280;5866;49.094;11.900;2023-07-02T02:23:39;95589.75;;;17.48;100.00
11621;BME280;5866;49.094;11.900;2023-07-02T02:26:06;95585.22;;;17.48;100.00
11621;BME280;5866;49.094;11.900;2023-07-02T02:28:35;95572.47;;;17.44;100.00
11621;BME280;5866;49.094;11.900;2023-07-02T02:31:03;95570.72;;;17.07;100.00
11621;BME280;5866;49.094;11.900;2023-07-02T02:33:31;95566.56;;;17.11;100.00
11621;BME280;5866;49.094;11.900;2023-07-02T02:35:59;95559.47;;;17.23;100.00
11621;BME280;5866;49.094;11.900;2023-07-02T02:38:27;95557.00;;;17.21;100.00
11621;BME280;5866;49.094;11.900;2023-07-02T02:40:54;95544.06;;;17.36;100.00
11621;BME280;5866;49.094;11.900;2023-07-02T02:43:22;95542.53;;;17.90;100.00
11621;BME280;5866;49.094;11.900;2023-07-02T02:45:51;95554.66;;;17.74;100.00
11621;BME280;5866;49.094;11.900;2023-07-02T02:48:18;95555.94;;;17.47;100.00
11621;BME280;5866;49.094;11.900;2023-07-02T02:50:46;95548.78;;;17.66;100.00
11621;BME280;5866;49.094;11.900;2023-07-02T02:53:14;95562.66;;;18.17;100.00
11621;BME280;5866;49.094;11.900;2023-07-02T02:55:42;95560.19;;;17.79;100.00
11621;BME280;5866;49.094;11.900;2023-07-02T02:58:09;95557.47;;;18.34;100.00
11621;BME280;5866;49.094;11.900;2023-07-02T03:00:37;95560.34;;;18.02;100.00
11621;BME280;5866;49.094;11.900;2023-07-02T03:03:10;95554.81;;;17.79;100.00
11621;BME280;5866;49.094;11.900;2023-07-02T03:05:37;95554.59;;;17.81;100.00
11621;BME280;5866;49.094;11.900;2023-07-02T03:08:05;95542.31;;;17.48;100.00
11621;BME280;5866;49.094;11.900;2023-07-02T03:10:33;95558.63;;;17.72;100.00
11621;BME280;5866;49.094;11.900;2023-07-02T03:13:00;95558.47;;;17.42;100.00
11621;BME280;5866;49.094;11.900;2023-07-02T03:15:28;95558.81;;;17.70;100.00
11621;BME280;5866;49.094;11.900;2023-07-02T03:17:57;95558.69;;;17.16;100.00
11621;BME280;5866;49.094;11.900;2023-07-02T03:20:26;95560.66;;;17.27;100.00
11621;BME280;5866;49.094;11.900;2023-07-02T03:22:53;95572.84;;;17.23;100.00
11621;BME280;5866;49.094;11.900;2023-07-02T03:25:21;95573.31;;;17.44;100.00
11621;BME280;5866;49.094;11.900;2023-07-02T03:27:48;95574.31;;;17.50;100.00
11621;BME280;5866;49.094;11.900;2023-07-02T03:30:16;95572.09;;;17.65;100.00
11621;BME280;5866;49.094;11.900;2023-07-02T03:32:43;95582.34;;;17.50;100.00
11621;BME280;5866;49.094;11.900;2023-07-02T03:35:11;95576.41;;;17.66;100.00
11621;BME280;5866;49.094;11.900;2023-07-02T03:37:40;95575.91;;;17.94;100.00
11621;BME280;5866;49.094;11.900;2023-07-02T03:40:10;95576.44;;;18.02;100.00
11621;BME280;5866;49.094;11.900;2023-07-02T03:42:38;95582.38;;;18.22;100.00
11621;BME280;5866;49.094;11.900;2023-07-02T03:45:06;95581.03;;;18.50;100.00
11621;BME280;5866;49.094;11.900;2023-07-02T03:47:34;95584.72;;;18.01;100.00
11621;BME280;5866;49.094;11.900;2023-07-02T03:50:01;95578.59;;;18.12;100.00
11621;BME280;5866;49.094;11.900;2023-07-02T03:52:29;95587.16;;;18.39;100.00
11621;BME280;5866;49.094;11.900;2023-07-02T03:54:58;95583.38;;;18.76;100.00
11621;BME280;5866;49.094;11.900;2023-07-02T03:57:25;95588.97;;;19.04;100.00
11621;BME280;5866;49.094;11.900;2023-07-02T03:59:53;95598.00;;;18.80;100.00
11621;BME280;5866;49.094;11.900;2023-07-02T04:02:21;95601.81;;;19.02;100.00
11621;BME280;5866;49.094;11.900;2023-07-02T04:04:48;95597.84;;;19.34;100.00
11621;BME280;5866;49.094;11.900;2023-07-02T04:07:16;95596.34;;;19.96;100.00
11621;BME280;5866;49.094;11.900;2023-07-02T04:09:43;95596.09;;;21.00;95.63
11621;BME280;5866;49.094;11.900;2023-07-02T04:12:12;95597.88;;;21.23;90.53
11621;BME280;5866;49.094;11.900;2023-07-02T04:14:40;95601.84;;;21.82;86.80
11621;BME280;5866;49.094;11.900;2023-07-02T04:17:09;95604.09;;;22.66;77.50
11621;BME280;5866;49.094;11.900;2023-07-02T04:19:36;95605.69;;;22.62;74.81
11621;BME280;5866;49.094;11.900;2023-07-02T04:22:04;95609.03;;;22.69;74.96
11621;BME280;5866;49.094;11.900;2023-07-02T04:24:32;95607.16;;;23.45;69.98
11621;BME280;5866;49.094;11.900;2023-07-02T04:27:00;95616.31;;;22.90;72.28
11621;BME280;5866;49.094;11.900;2023-07-02T04:29:49;95621.50;;;22.70;72.92
11621;BME280;5866;49.094;11.900;2023-07-02T04:32:16;95623.66;;;22.73;74.34
11621;BME280;5866;49.094;11.900;2023-07-02T04:34:44;95624.59;;;22.62;75.13
11621;BME280;5866;49.094;11.900;2023-07-02T04:37:11;95626.16;;;23.50;70.71
11621;BME280;5866;49.094;11.900;2023-07-02T04:39:41;95619.50;;;23.99;66.87
11621;BME280;5866;49.094;11.900;2023-07-02T04:42:09;95622.91;;;24.16;64.37
11621;BME280;5866;49.094;11.900;2023-07-02T04:44:41;95622.56;;;23.18;68.74
11621;BME280;5866;49.094;11.900;2023-07-02T04:47:11;95625.91;;;23.83;66.71
11621;BME280;5866;49.094;11.900;2023-07-02T04:49:39;95620.84;;;24.33;65.12
11621;BME280;5866;49.094;11.900;2023-07-02T04:52:06;95632.84;;;24.99;60.40
11621;BME280;5866;49.094;11.900;2023-07-02T04:54:35;95621.31;;;25.49;57.88
11621;BME280;5866;49.094;11.900;2023-07-02T04:57:03;95630.91;;;23.38;64.61
11621;BME280;5866;49.094;11.900;2023-07-02T04:59:31;95629.28;;;22.12;75.75
11621;BME280;5866;49.094;11.900;2023-07-02T05:01:58;95640.28;;;20.71;89.78
11621;BME280;5866;49.094;11.900;2023-07-02T05:04:27;95648.91;;;20.22;94.76
11621;BME280;5866;49.094;11.900;2023-07-02T05:06:54;95657.16;;;19.39;100.00
11621;BME280;5866;49.094;11.900;2023-07-02T05:09:22;95660.53;;;19.46;100.00
11621;BME280;5866;49.094;11.900;2023-07-02T05:11:50;95656.25;;;18.68;100.00
11621;BME280;5866;49.094;11.900;2023-07-02T05:14:17;95663.94;;;19.53;100.00
11621;BME280;5866;49.094;11.900;2023-07-02T05:16:45;95655.19;;;19.69;100.00
11621;BME280;5866;49.094;11.900;2023-07-02T05:19:12;95656.97;;;19.87;99.10
11621;BME280;5866;49.094;11.900;2023-07-02T05:21:41;95662.94;;;20.12;99.27
11621;BME280;5866;49.094;11.900;2023-07-02T05:24:09;95671.59;;;21.57;94.48
11621;BME280;5866;49.094;11.900;2023-07-02T05:26:37;95664.25;;;22.57;75.80
11621;BME280;5866;49.094;11.900;2023-07-02T05:29:04;95669.69;;;21.41;82.40
11621;BME280;5866;49.094;11.900;2023-07-02T05:31:32;95676.03;;;22.29;78.48
11621;BME280;5866;49.094;11.900;2023-07-02T05:34:00;95678.09;;;20.76;88.06
11621;BME280;5866;49.094;11.900;2023-07-02T05:36:28;95685.41;;;20.18;92.63
11621;BME280;5866;49.094;11.900;2023-07-02T05:38:57;95696.03;;;19.78;100.00
11621;BME280;5866;49.094;11.900;2023-07-02T05:41:24;95697.81;;;19.72;98.99
11621;BME280;5866;49.094;11.900;2023-07-02T05:43:56;95700.72;;;18.82;100.00
11621;BME280;5866;49.094;11.900;2023-07-02T05:46:24;95698.22;;;18.98;100.00
11621;BME280;5866;49.094;11.900;2023-07-02T05:48:51;95697.66;;;18.60;100.00
11621;BME280;5866;49.094;11.900;2023-07-02T05:51:22;95698.78;;;18.89;100.00
11621;BME280;5866;49.094;11.900;2023-07-02T05:53:50;95706.94;;;18.40;100.00
11621;BME280;5866;49.094;11.900;2023-07-02T05:56:19;95708.72;;;18.70;100.00
11621;BME280;5866;49.094;11.900;2023-07-02T05:58:48;95699.88;;;18.99;100.00
11621;BME280;5866;49.094;11.900;2023-07-02T06:01:16;95708.41;;;18.60;100.00
11621;BME280;5866;49.094;11.900;2023-07-02T06:03:43;95704.81;;;18.48;100.00
11621;BME280;5866;49.094;11.900;2023-07-02T06:06:12;95710.91;;;17.94;100.00
11621;BME280;5866;49.094;11.900;2023-07-02T06:08:39;95714.44;;;17.95;100.00
11621;BME280;5866;49.094;11.900;2023-07-02T06:11:07;95721.66;;;17.94;100.00
11621;BME280;5866;49.094;11.900;2023-07-02T06:13:36;95724.06;;;17.78;100.00
11621;BME280;5866;49.094;11.900;2023-07-02T06:16:04;95729.13;;;17.61;100.00
11621;BME280;5866;49.094;11.900;2023-07-02T06:18:31;95726.22;;;18.12;100.00
11621;BME280;5866;49.094;11.900;2023-07-02T06:20:59;95732.44;;;17.63;100.00
11621;BME280;5866;49.094;11.900;2023-07-02T06:23:26;95731.97;;;17.66;100.00
11621;BME280;5866;49.094;11.900;2023-07-02T06:25:54;95742.25;;;17.76;100.00
11621;BME280;5866;49.094;11.900;2023-07-02T06:28:25;95744.44;;;17.54;100.00
11621;BME280;5866;49.094;11.900;2023-07-02T06:30:54;95745.69;;;17.45;100.00
11621;BME280;5866;49.094;11.900;2023-07-02T06:33:22;95747.88;;;17.30;100.00
11621;BME280;5866;49.094;11.900;2023-07-02T06:35:49;95746.63;;;17.64;100.00
11621;BME280;5866;49.094;11.900;2023-07-02T06:38:17;95751.75;;;17.72;100.00
11621;BME280;5866;49.094;11.900;2023-07-02T06:40:45;95750.78;;;17.91;100.00
11621;BME280;5866;49.094;11.900;2023-07-02T06:43:13;95744.25;;;18.30;100.00
11621;BME280;5866;49.094;11.900;2023-07-02T06:45:40;95753.13;;;17.81;100.00
11621;BME280;5866;49.094;11.900;2023-07-02T06:48:09;95743.88;;;17.77;100.00
11621;BME280;5866;49.094;11.900;2023-07-02T06:50:37;95745.53;;;18.02;100.00
11621;BME280;5866;49.094;11.900;2023-07-02T06:53:04;95753.03;;;17.94;100.00
11621;BME280;5866;49.094;11.900;2023-07-02T06:55:32;95754.06;;;17.93;100.00
11621;BME280;5866;49.094;11.900;2023-07-02T06:57:59;95759.97;;;18.26;100.00
11621;BME280;5866;49.094;11.900;2023-07-02T07:00:27;95752.28;;;18.54;100.00
11621;BME280;5866;49.094;11.900;2023-07-02T07:02:55;95745.38;;;18.40;100.00
11621;BME280;5866;49.094;11.900;2023-07-02T07:05:24;95756.19;;;18.34;100.00
11621;BME280;5866;49.094;11.900;2023-07-02T07:07:51;95741.91;;;18.15;100.00
11621;BME280;5866;49.094;11.900;2023-07-02T07:10:19;95745.91;;;17.81;100.00
11621;BME280;5866;49.094;11.900;2023-07-02T07:12:47;95743.63;;;18.09;100.00
11621;BME280;5866;49.094;11.900;2023-07-02T07:15:14;95743.72;;;17.96;99.33
11621;BME280;5866;49.094;11.900;2023-07-02T07:17:42;95748.16;;;18.09;94.18
11621;BME280;5866;49.094;11.900;2023-07-02T07:20:10;95745.09;;;18.66;89.12
11621;BME280;5866;49.094;11.900;2023-07-02T07:22:39;95744.53;;;19.30;84.72
11621;BME280;5866;49.094;11.900;2023-07-02T07:25:08;95734.09;;;20.05;80.27
11621;BME280;5866;49.094;11.900;2023-07-02T07:27:36;95732.19;;;20.23;74.59
11621;BME280;5866;49.094;11.900;2023-07-02T07:30:04;95718.38;;;20.31;69.51
11621;BME280;5866;49.094;11.900;2023-07-02T07:32:32;95738.59;;;19.58;75.79
11621;BME280;5866;49.094;11.900;2023-07-02T07:35:00;95744.13;;;19.74;76.53
11621;BME280;5866;49.094;11.900;2023-07-02T07:37:27;95740.31;;;20.05;70.49
11621;BME280;5866;49.094;11.900;2023-07-02T07:39:56;95734.94;;;19.04;75.49
11621;BME280;5866;49.094;11.900;2023-07-02T07:42:24;95752.34;;;19.20;78.14
11621;BME280;5866;49.094;11.900;2023-07-02T07:44:52;95745.56;;;18.99;75.21
11621;BME280;5866;49.094;11.900;2023-07-02T07:47:19;95751.06;;;19.52;72.31
11621;BME280;5866;49.094;11.900;2023-07-02T07:49:47;95746.25;;;19.43;70.29
11621;BME280;5866;49.094;11.900;2023-07-02T07:52:14;95733.94;;;20.41;68.75
11621;BME280;5866;49.094;11.900;2023-07-02T07:54:42;95741.00;;;20.93;64.28
11621;BME280;5866;49.094;11.900;2023-07-02T07:57:11;95741.53;;;20.67;66.46
11621;BME280;5866;49.094;11.900;2023-07-02T07:59:38;95738.78;;;21.70;61.68
11621;BME280;5866;49.094;11.900;2023-07-02T08:02:06;95728.28;;;21.57;57.90
11621;BME280;5866;49.094;11.900;2023-07-02T08:04:34;95728.03;;;21.86;57.65
11621;BME280;5866;49.094;11.900;2023-07-02T08:07:01;95736.00;;;20.85;60.80
11621;BME280;5866;49.094;11.900;2023-07-02T08:09:30;95738.09;;;21.91;61.47
11621;BME280;5866;49.094;11.900;2023-07-02T08:11:58;95748.16;;;19.95;64.27
11621;BME280;5866;49.094;11.900;2023-07-02T08:14:27;95742.38;;;19.68;66.86
11621;BME280;5866;49.094;11.900;2023-07-02T08:16:54;95753.00;;;19.34;68.85
11621;BME280;5866;49.094;11.900;2023-07-02T08:19:22;95753.72;;;19.41;68.45
11621;BME280;5866;49.094;11.900;2023-07-02T08:21:53;95759.22;;;18.98;69.52
11621;BME280;5866;49.094;11.900;2023-07-02T08:24:20;95762.03;;;19.39;71.61
11621;BME280;5866;49.094;11.900;2023-07-02T08:26:48;95763.47;;;19.83;67.07
11621;BME280;5866;49.094;11.900;2023-07-02T08:29:16;95748.97;;;19.54;68.86
11621;BME280;5866;49.094;11.900;2023-07-02T08:31:45;95766.22;;;20.18;66.72
11621;BME280;5866;49.094;11.900;2023-07-02T08:34:12;95747.75;;;20.56;66.76
11621;BME280;5866;49.094;11.900;2023-07-02T08:36:40;95747.22;;;21.05;60.16
11621;BME280;5866;49.094;11.900;2023-07-02T08:39:09;95758.69;;;21.52;60.21
11621;BME280;5866;49.094;11.900;2023-07-02T08:41:44;95741.25;;;22.54;57.39
11621;BME280;5866;49.094;11.900;2023-07-02T08:44:13;95749.53;;;24.26;50.89
11621;BME280;5866;49.094;11.900;2023-07-02T08:46:42;95738.41;;;23.69;50.91
11621;BME280;5866;49.094;11.900;2023-07-02T08:49:11;95752.25;;;23.03;52.25
11621;BME280;5866;49.094;11.900;2023-07-02T08:51:38;95754.53;;;20.82;58.61
11621;BME280;5866;49.094;11.900;2023-07-02T08:54:06;95758.31;;;21.20;59.91
11621;BME280;5866;49.094;11.900;2023-07-02T08:56:33;95746.91;;;21.58;56.45
11621;BME280;5866;49.094;11.900;2023-07-02T08:59:01;95759.47;;;22.26;56.86
11621;BME280;5866;49.094;11.900;2023-07-02T09:01:29;95755.25;;;23.28;52.49
11621;BME280;5866;49.094;11.900;2023-07-02T09:03:58;95761.44;;;20.78;58.21
11621;BME280;5866;49.094;11.900;2023-07-02T09:06:28;95761.72;;;21.27;59.38
11621;BME280;5866;49.094;11.900;2023-07-02T09:09:03;95758.91;;;22.07;56.06
11621;BME280;5866;49.094;11.900;2023-07-02T09:11:31;95760.63;;;23.23;54.81
11621;BME280;5866;49.094;11.900;2023-07-02T09:13:59;95757.97;;;23.28;51.77
11621;BME280;5866;49.094;11.900;2023-07-02T09:16:28;95758.63;;;21.35;58.10
11621;BME280;5866;49.094;11.900;2023-07-02T09:19:01;95759.00;;;21.56;57.73
11621;BME280;5866;49.094;11.900;2023-07-02T09:21:40;95758.56;;;22.03;56.72
11621;BME280;5866;49.094;11.900;2023-07-02T09:24:15;95754.75;;;21.60;59.16
11621;BME280;5866;49.094;11.900;2023-07-02T09:26:44;95751.03;;;22.55;54.21
11621;BME280;5866;49.094;11.900;2023-07-02T09:29:12;95759.78;;;21.96;55.25
11621;BME280;5866;49.094;11.900;2023-07-02T09:31:44;95761.22;;;24.00;51.40
11621;BME280;5866;49.094;11.900;2023-07-02T09:34:33;95757.25;;;24.07;48.90
11621;BME280;5866;49.094;11.900;2023-07-02T09:37:04;95763.56;;;23.21;51.90
11621;BME280;5866;49.094;11.900;2023-07-02T09:39:33;95766.75;;;20.61;57.14
11621;BME280;5866;49.094;11.900;2023-07-02T09:42:05;95756.41;;;20.58;60.52
11621;BME280;5866;49.094;11.900;2023-07-02T09:44:34;95757.16;;;20.01;62.19
11621;BME280;5866;49.094;11.900;2023-07-02T09:47:03;95762.78;;;19.88;61.09
11621;BME280;5866;49.094;11.900;2023-07-02T09:49:32;95777.56;;;20.08;61.36
11621;BME280;5866;49.094;11.900;2023-07-02T09:52:03;95759.66;;;20.72;59.23
11621;BME280;5866;49.094;11.900;2023-07-02T09:54:31;95761.16;;;21.70;52.74
11621;BME280;5866;49.094;11.900;2023-07-02T09:56:58;95746.84;;;22.64;49.53
11621;BME280;5866;49.094;11.900;2023-07-02T09:59:27;95745.28;;;22.02;50.37
11621;BME280;5866;49.094;11.900;2023-07-02T10:01:55;95741.94;;;21.95;48.88
11621;BME280;5866;49.094;11.900;2023-07-02T10:04:24;95748.59;;;23.14;46.45
11621;BME280;5866;49.094;11.900;2023-07-02T10:06:54;95749.69;;;24.78;42.40
11621;BME280;5866;49.094;11.900;2023-07-02T10:09:35;95752.97;;;24.85;42.09
11621;BME280;5866;49.094;11.900;2023-07-02T10:12:15;95750.03;;;23.64;42.83
11621;BME280;5866;49.094;11.900;2023-07-02T10:14:44;95758.25;;;21.72;45.95
11621;BME280;5866;49.094;11.900;2023-07-02T10:17:23;95755.25;;;21.28;47.50
11621;BME280;5866;49.094;11.900;2023-07-02T10:19:51;95749.56;;;21.13;47.36
11621;BME280;5866;49.094;11.900;2023-07-02T10:22:19;95755.19;;;21.00;48.19
11621;BME280;5866;49.094;11.900;2023-07-02T10:24:52;95746.44;;;21.33;47.38
11621;BME280;5866;49.094;11.900;2023-07-02T10:27:20;95748.56;;;22.37;45.48
11621;BME280;5866;49.094;11.900;2023-07-02T10:29:59;95764.59;;;22.77;45.91
11621;BME280;5866;49.094;11.900;2023-07-02T10:32:27;95758.63;;;23.35;45.23
11621;BME280;5866;49.094;11.900;2023-07-02T10:34:55;95758.72;;;21.97;46.85
11621;BME280;5866;49.094;11.900;2023-07-02T10:37:25;95755.78;;;22.65;44.74
11621;BME280;5866;49.094;11.900;2023-07-02T10:39:54;95754.94;;;24.53;43.82
11621;BME280;5866;49.094;11.900;2023-07-02T10:42:22;95750.81;;;24.87;41.44
11621;BME280;5866;49.094;11.900;2023-07-02T10:44:50;95764.59;;;23.85;40.94
11621;BME280;5866;49.094;11.900;2023-07-02T10:47:18;95767.25;;;23.53;42.67
11621;BME280;5866;49.094;11.900;2023-07-02T10:49:46;95765.66;;;23.36;42.06
11621;BME280;5866;49.094;11.900;2023-07-02T10:52:13;95744.78;;;24.38;41.35
11621;BME280;5866;49.094;11.900;2023-07-02T10:54:42;95748.31;;;24.75;39.59
11621;BME280;5866;49.094;11.900;2023-07-02T10:57:14;95758.50;;;25.00;40.60
11621;BME280;5866;49.094;11.900;2023-07-02T10:59:42;95760.47;;;25.81;39.71
11621;BME280;5866;49.094;11.900;2023-07-02T11:02:09;95755.13;;;26.47;38.78
11621;BME280;5866;49.094;11.900;2023-07-02T11:04:37;95744.25;;;26.42;38.62
11621;BME280;5866;49.094;11.900;2023-07-02T11:07:05;95752.31;;;23.51;39.91
11621;BME280;5866;49.094;11.900;2023-07-02T11:09:33;95752.00;;;23.26;41.40
11621;BME280;5866;49.094;11.900;2023-07-02T11:12:00;95757.41;;;23.26;41.89
11621;BME280;5866;49.094;11.900;2023-07-02T11:14:31;95762.75;;;24.17;41.83
11621;BME280;5866;49.094;11.900;2023-07-02T11:17:00;95752.19;;;23.89;40.53
11621;BME280;5866;49.094;11.900;2023-07-02T11:19:29;95745.13;;;22.97;42.40
11621;BME280;5866;49.094;11.900;2023-07-02T11:21:58;95760.09;;;21.99;44.28
11621;BME280;5866;49.094;11.900;2023-07-02T11:24:30;95768.25;;;21.60;44.46
11621;BME280;5866;49.094;11.900;2023-07-02T11:26:58;95768.31;;;23.31;43.35
11621;BME280;5866;49.094;11.900;2023-07-02T11:29:27;95768.53;;;23.46;40.41
11621;BME280;5866;49.094;11.900;2023-07-02T11:32:05;95756.91;;;23.07;41.76
11621;BME280;5866;49.094;11.900;2023-07-02T11:34:33;95758.22;;;23.05;42.91
11621;BME280;5866;49.094;11.900;2023-07-02T11:37:00;95765.09;;;22.57;43.91
11621;BME280;5866;49.094;11.900;2023-07-02T11:39:29;95764.50;;;23.75;41.26
11621;BME280;5866;49.094;11.900;2023-07-02T11:41:57;95767.81;;;23.55;42.35
11621;BME280;5866;49.094;11.900;2023-07-02T11:44:25;95763.16;;;24.31;41.56
11621;BME280;5866;49.094;11.900;2023-07-02T11:46:53;95756.56;;;24.90;40.00
11621;BME280;5866;49.094;11.900;2023-07-02T11:49:24;95763.84;;;24.16;40.86
11621;BME280;5866;49.094;11.900;2023-07-02T11:51:52;95765.63;;;23.79;42.58
11621;BME280;5866;49.094;11.900;2023-07-02T11:54:20;95765.00;;;23.72;41.96
11621;BME280;5866;49.094;11.900;2023-07-02T11:56:47;95752.53;;;23.98;41.72
11621;BME280;5866;49.094;11.900;2023-07-02T11:59:15;95759.41;;;25.15;39.74
11621;BME280;5866;49.094;11.900;2023-07-02T12:01:42;95756.91;;;24.30;40.43
11621;BME280;5866;49.094;11.900;2023-07-02T12:04:10;95751.84;;;22.94;42.65
11621;BME280;5866;49.094;11.900;2023-07-02T12:06:40;95744.13;;;22.48;43.22
11621;BME280;5866;49.094;11.900;2023-07-02T12:09:08;95755.34;;;22.56;44.52
11621;BME280;5866;49.094;11.900;2023-07-02T12:11:35;95757.06;;;23.65;42.73
11621;BME280;5866;49.094;11.900;2023-07-02T12:14:03;95768.25;;;23.47;43.01
11621;BME280;5866;49.094;11.900;2023-07-02T12:16:30;95751.06;;;22.77;43.76
11621;BME280;5866;49.094;11.900;2023-07-02T12:18:58;95756.19;;;23.33;43.54
11621;BME280;5866;49.094;11.900;2023-07-02T12:21:26;95752.59;;;22.35;44.20
11621;BME280;5866;49.094;11.900;2023-07-02T12:23:54;95756.59;;;22.49;45.31
11621;BME280;5866;49.094;11.900;2023-07-02T12:26:22;95756.28;;;22.45;44.59
11621;BME280;5866;49.094;11.900;2023-07-02T12:28:49;95754.09;;;23.40;41.89
11621;BME280;5866;49.094;11.900;2023-07-02T12:31:17;95765.41;;;23.59;42.79
11621;BME280;5866;49.094;11.900;2023-07-02T12:33:45;95743.91;;;22.87;42.31
11621;BME280;5866;49.094;11.900;2023-07-02T12:36:12;95755.94;;;23.35;43.33
11621;BME280;5866;49.094;11.900;2023-07-02T12:38:40;95739.44;;;24.48;42.52
11621;BME280;5866;49.094;11.900;2023-07-02T12:41:09;95732.81;;;23.06;41.59
11621;BME280;5866;49.094;11.900;2023-07-02T12:43:36;95733.41;;;23.13;42.02
11621;BME280;5866;49.094;11.900;2023-07-02T12:46:05;95743.03;;;23.95;40.14
11621;BME280;5866;49.094;11.900;2023-07-02T12:48:33;95737.38;;;24.65;38.63
11621;BME280;5866;49.094;11.900;2023-07-02T12:51:01;95730.31;;;24.64;39.93
11621;BME280;5866;49.094;11.900;2023-07-02T12:53:28;95738.16;;;24.61;39.76
11621;BME280;5866;49.094;11.900;2023-07-02T12:55:56;95740.88;;;23.97;40.07
11621;BME280;5866;49.094;11.900;2023-07-02T12:58:25;95738.34;;;23.16;41.34
11621;BME280;5866;49.094;11.900;2023-07-02T13:00:52;95733.19;;;23.36;41.56
11621;BME280;5866;49.094;11.900;2023-07-02T13:03:21;95718.06;;;23.40;41.55